createdAt,value
2023-12-11T00:03:15.336Z,8.57
2023-12-11T00:08:16.952Z,7.45
2023-12-11T00:13:18.576Z,7.00
2023-12-11T00:18:20.248Z,8.23
2023-12-11T00:23:21.902Z,6.38
2023-12-11T00:28:23.539Z,7.20
2023-12-11T00:33:25.256Z,6.82
2023-12-11T00:38:26.874Z,7.47
2023-12-11T00:43:28.479Z,8.07
2023-12-11T00:48:46.223Z,8.53
2023-12-11T00:53:48.816Z,9.23
2023-12-11T00:58:50.408Z,8.23
2023-12-11T01:03:52.008Z,7.68
2023-12-11T01:08:53.586Z,8.73
2023-12-11T01:13:55.145Z,7.50
2023-12-11T01:18:56.847Z,8.35
2023-12-11T01:23:58.646Z,8.63
2023-12-11T01:29:00.241Z,9.07
2023-12-11T01:34:01.931Z,7.50
2023-12-11T01:39:04.023Z,8.45
2023-12-11T01:44:05.596Z,8.13
2023-12-11T01:49:07.372Z,10.52
2023-12-11T01:54:09.014Z,7.55
2023-12-11T01:59:11.190Z,9.68
2023-12-11T02:04:12.942Z,8.77
2023-12-11T02:09:14.773Z,8.50
2023-12-11T02:14:16.417Z,8.73
2023-12-11T02:19:18.140Z,8.48
2023-12-11T02:24:24.332Z,9.30
2023-12-11T02:29:25.985Z,8.27
2023-12-11T02:34:27.655Z,7.75
2023-12-11T02:39:29.277Z,8.93
2023-12-11T02:44:30.895Z,8.13
2023-12-11T02:49:32.575Z,8.35
2023-12-11T02:54:34.180Z,9.55
2023-12-11T02:59:35.810Z,7.65
2023-12-11T03:04:37.441Z,8.20
2023-12-11T03:09:39.107Z,8.85
2023-12-11T03:14:40.680Z,8.02
2023-12-11T03:19:42.399Z,7.65
2023-12-11T03:24:44.109Z,7.05
2023-12-11T03:29:45.710Z,8.23
2023-12-11T03:34:47.398Z,8.18
2023-12-11T03:39:49.132Z,7.65
2023-12-11T03:44:50.924Z,8.07
2023-12-11T03:49:52.850Z,6.93
2023-12-11T03:54:54.530Z,6.75
2023-12-11T03:59:56.122Z,8.82
2023-12-11T04:04:57.771Z,7.07
2023-12-11T04:09:59.532Z,6.47
2023-12-11T04:15:01.130Z,6.38
2023-12-11T04:20:03.099Z,6.60
2023-12-11T04:25:05.286Z,6.82
2023-12-11T04:30:07.401Z,6.63
2023-12-11T04:35:09.172Z,8.18
2023-12-11T04:40:11.385Z,6.78
2023-12-11T04:45:13.207Z,7.82
2023-12-11T04:50:14.907Z,6.75
2023-12-11T04:55:17.042Z,7.47
2023-12-11T05:00:19.570Z,8.32
2023-12-11T05:05:21.233Z,7.20
2023-12-11T05:10:22.918Z,7.55
2023-12-11T05:15:24.484Z,7.72
2023-12-11T05:20:26.028Z,6.03
2023-12-11T05:25:27.568Z,5.65
2023-12-11T05:30:29.264Z,5.95
2023-12-11T05:35:30.864Z,6.40
2023-12-11T05:40:32.524Z,5.28
2023-12-11T05:45:34.287Z,4.60
2023-12-11T05:50:37.135Z,4.72
2023-12-11T05:55:39.900Z,4.88
2023-12-11T06:00:41.658Z,5.43
2023-12-11T06:05:43.631Z,5.75
2023-12-11T06:10:45.281Z,5.90
2023-12-11T06:15:47.106Z,5.30
2023-12-11T06:20:49.050Z,4.97
2023-12-11T06:25:50.604Z,5.57
2023-12-11T06:30:52.467Z,6.68
2023-12-11T06:35:54.108Z,4.85
2023-12-11T06:40:55.679Z,5.70
2023-12-11T06:45:57.694Z,4.43
2023-12-11T06:50:59.249Z,5.65
2023-12-11T06:56:00.866Z,5.65
2023-12-11T07:01:02.567Z,3.75
2023-12-11T07:06:04.579Z,3.80
2023-12-11T07:11:06.314Z,4.35
2023-12-11T07:16:08.261Z,3.78
2023-12-11T07:21:10.752Z,4.65
2023-12-11T07:26:12.374Z,5.30
2023-12-11T07:31:14.076Z,5.40
2023-12-11T07:36:16.401Z,4.57
2023-12-11T07:41:24.638Z,4.65
2023-12-11T07:46:26.268Z,5.32
2023-12-11T07:51:29.264Z,5.07
2023-12-11T07:56:31.277Z,4.70
2023-12-11T08:01:33.188Z,3.78
2023-12-11T08:06:40.904Z,4.55
2023-12-11T08:16:44.112Z,4.00
2023-12-11T08:21:45.746Z,3.10
2023-12-11T08:26:47.911Z,3.97
2023-12-11T08:31:50.257Z,3.67
2023-12-11T08:36:51.858Z,4.78
2023-12-11T08:41:53.487Z,4.40
2023-12-11T08:46:55.084Z,5.43
2023-12-11T08:51:56.803Z,5.60
2023-12-11T08:56:58.383Z,5.72
2023-12-11T09:02:00.096Z,4.75
2023-12-11T09:07:01.872Z,4.60
2023-12-11T09:12:03.637Z,4.78
2023-12-11T09:17:05.981Z,4.63
2023-12-11T09:22:07.633Z,4.07
2023-12-11T09:27:09.333Z,3.33
2023-12-11T09:32:10.916Z,3.00
2023-12-11T09:37:12.917Z,3.20
2023-12-11T09:42:15.335Z,4.63
2023-12-11T09:47:25.208Z,4.63
2023-12-11T09:52:28.748Z,5.20
2023-12-11T09:57:30.954Z,5.60
2023-12-11T10:02:32.928Z,7.35
2023-12-11T10:07:35.864Z,5.97
2023-12-11T10:12:43.309Z,5.82
2023-12-11T10:17:44.941Z,4.38
2023-12-11T10:22:49.392Z,3.95
2023-12-11T10:28:04.414Z,2.72
2023-12-11T10:33:06.207Z,4.07
2023-12-11T10:38:07.914Z,3.70
2023-12-11T10:43:09.587Z,2.67
2023-12-11T10:48:11.412Z,2.78
2023-12-11T10:53:13.394Z,2.58
2023-12-11T10:58:15.078Z,2.55
2023-12-11T11:03:18.050Z,2.47
2023-12-11T11:08:32.614Z,2.67
2023-12-11T11:13:50.021Z,2.53
2023-12-11T11:19:10.190Z,9.02
2023-12-11T11:24:34.292Z,1.65
2023-12-11T11:29:46.005Z,2.20
2023-12-11T11:34:47.787Z,1.50
2023-12-11T11:40:06.526Z,1.30
2023-12-11T11:45:09.095Z,1.30
2023-12-11T11:50:14.169Z,1.00
2023-12-11T11:55:22.084Z,0.98
2023-12-11T12:05:27.534Z,1.38
2023-12-11T12:10:29.300Z,1.05
2023-12-11T12:15:31.138Z,1.25
2023-12-11T12:20:32.711Z,0.80
2023-12-11T12:25:35.694Z,1.10
2023-12-11T12:30:37.749Z,1.00
2023-12-11T12:35:40.411Z,1.20
2023-12-11T12:40:42.639Z,1.30
2023-12-11T12:45:44.859Z,1.60
2023-12-11T12:50:49.631Z,1.80
2023-12-11T12:55:52.214Z,2.35
2023-12-11T13:00:58.066Z,1.55
2023-12-11T13:06:00.690Z,1.45
2023-12-11T13:11:02.704Z,1.10
2023-12-11T13:16:07.467Z,1.50
2023-12-11T13:21:09.058Z,1.50
2023-12-11T13:26:10.614Z,0.93
2023-12-11T13:31:12.206Z,1.90
2023-12-11T13:36:17.274Z,1.42
2023-12-11T13:41:18.909Z,1.27
2023-12-11T13:46:20.574Z,1.55
2023-12-11T13:51:22.250Z,1.83
2023-12-11T13:56:23.809Z,2.33
2023-12-11T14:01:25.568Z,1.65
2023-12-11T14:06:28.213Z,1.42
2023-12-11T14:11:29.726Z,1.35
2023-12-11T14:16:33.034Z,1.90
2023-12-11T14:21:34.889Z,1.63
2023-12-11T14:26:43.640Z,2.10
2023-12-11T14:31:50.734Z,2.05
2023-12-11T14:36:52.402Z,2.03
2023-12-11T14:41:54.034Z,1.60
2023-12-11T14:46:55.581Z,2.00
2023-12-11T14:51:57.705Z,1.80
2023-12-11T14:57:00.052Z,1.40
2023-12-11T15:02:02.094Z,1.48
2023-12-11T15:07:05.430Z,1.50
2023-12-11T15:12:08.409Z,1.70
2023-12-11T15:17:13.002Z,2.53
2023-12-11T15:22:14.770Z,2.25
2023-12-11T15:27:16.403Z,1.33
2023-12-11T15:32:20.215Z,2.13
2023-12-11T15:37:23.083Z,1.55
2023-12-11T15:42:24.742Z,1.50
2023-12-11T15:47:26.307Z,1.58
2023-12-11T15:52:28.167Z,1.70
2023-12-11T15:57:34.561Z,2.10
2023-12-11T16:02:36.740Z,1.77
2023-12-11T16:07:38.409Z,1.50
2023-12-11T16:12:40.229Z,1.70
2023-12-11T16:17:41.873Z,1.95
2023-12-11T16:22:45.401Z,2.80
2023-12-11T16:27:47.514Z,2.35
2023-12-11T16:32:49.316Z,1.73
2023-12-11T16:37:52.367Z,1.65
2023-12-11T16:42:53.995Z,2.08
2023-12-11T16:47:56.057Z,2.00
2023-12-11T16:52:57.619Z,2.75
2023-12-11T16:57:59.195Z,2.05
2023-12-11T17:03:00.953Z,2.95
2023-12-11T17:08:02.759Z,2.00
2023-12-11T17:13:04.386Z,2.38
2023-12-11T17:18:09.079Z,2.58
2023-12-11T17:23:10.678Z,2.28
2023-12-11T17:28:12.235Z,2.28
2023-12-11T17:33:13.770Z,2.50
2023-12-11T17:38:15.397Z,2.50
2023-12-11T17:43:17.044Z,2.45
2023-12-11T17:48:18.699Z,2.88
2023-12-11T17:53:20.678Z,2.67
2023-12-11T17:58:22.465Z,7.20
2023-12-11T18:03:24.943Z,3.10
2023-12-11T18:08:26.530Z,2.65
2023-12-11T18:13:28.080Z,2.42
2023-12-11T18:18:31.950Z,2.83
2023-12-11T18:23:33.557Z,2.10
2023-12-11T18:28:35.197Z,2.20
2023-12-11T18:33:36.913Z,6.30
2023-12-11T18:38:38.521Z,6.85
2023-12-11T18:43:41.616Z,6.60
2023-12-11T18:48:43.326Z,4.95
2023-12-11T18:53:44.964Z,3.65
2023-12-11T18:58:47.487Z,7.72
2023-12-11T19:03:49.274Z,6.15
2023-12-11T19:08:50.951Z,6.40
2023-12-11T19:13:52.540Z,4.35
2023-12-11T19:18:54.270Z,6.80
2023-12-11T19:23:57.020Z,4.80
2023-12-11T19:28:58.628Z,4.18
2023-12-11T19:34:00.386Z,4.93
2023-12-11T19:39:02.049Z,4.40
2023-12-11T19:44:03.844Z,3.70
2023-12-11T19:49:05.504Z,12.27
2023-12-11T19:54:08.403Z,5.03
2023-12-11T19:59:10.347Z,4.45
2023-12-11T20:04:12.034Z,3.80
2023-12-11T20:09:13.785Z,4.07
2023-12-11T20:14:15.396Z,3.67
2023-12-11T20:19:16.988Z,3.33
2023-12-11T20:24:19.450Z,3.97
2023-12-11T20:29:21.269Z,4.25
2023-12-11T20:34:22.931Z,4.00
2023-12-11T20:39:24.526Z,3.47
2023-12-11T20:44:26.066Z,3.05
2023-12-11T20:49:27.699Z,4.10
2023-12-11T20:54:29.280Z,3.70
2023-12-11T20:59:30.863Z,3.42
2023-12-11T21:04:32.437Z,3.85
2023-12-11T21:09:34.013Z,3.08
2023-12-11T21:14:35.570Z,3.35
2023-12-11T21:19:37.223Z,3.65
2023-12-11T21:30:08.463Z,3.60
2023-12-11T21:35:10.028Z,3.97
2023-12-11T21:40:12.061Z,3.45
2023-12-11T21:45:13.632Z,3.58
2023-12-11T21:50:15.272Z,3.88
2023-12-11T21:55:16.887Z,3.70
2023-12-11T22:00:18.665Z,3.58
2023-12-11T22:05:20.294Z,4.93
2023-12-11T22:10:21.934Z,4.60
2023-12-11T22:15:23.516Z,4.68
2023-12-11T22:20:25.291Z,3.95
2023-12-11T22:25:26.832Z,3.42
2023-12-11T22:30:28.442Z,3.50
2023-12-11T22:35:30.001Z,3.20
2023-12-11T22:40:31.605Z,3.50
2023-12-11T22:45:33.149Z,2.53
2023-12-11T22:50:34.715Z,2.90
2023-12-11T22:55:36.336Z,3.30
2023-12-11T23:00:37.950Z,3.53
2023-12-11T23:05:39.607Z,3.05
2023-12-11T23:10:41.206Z,3.15
2023-12-11T23:15:42.771Z,3.53
2023-12-11T23:20:44.472Z,4.35
2023-12-11T23:25:54.501Z,4.45
2023-12-11T23:31:00.494Z,4.97
2023-12-11T23:36:02.075Z,4.85
2023-12-11T23:41:03.941Z,4.82
2023-12-11T23:46:05.525Z,5.32
2023-12-11T23:51:07.182Z,5.47
2023-12-11T23:56:09.220Z,5.78
